Flight Track Log - Related Links

Times and Time Zones

All times are in EDT time to prevent confusion due to time zone crossing. See the N9305N flight status page for this flight to view local times or setup timezone preferences in your user account.

Time Position Orientation Groundspeed Altitude Reporting Facility
EDT Latitude Longitude Course Direction KTS MPH feet Rate Location/Type
Wed 09:46:06 AM 28.5500 -81.3333 221° Southwest 82 94 500  Level Orlando TRACON
Wed 09:46:18 AM 28.5333 -81.3500 221° Southwest 75 86 600 500 Climbing Orlando TRACON
Wed 09:47:18 AM 28.5333 -81.3667 270° West 85 98 1,100 450 Climbing Orlando TRACON
Wed 09:48:18 AM 28.5167 -81.4000 240° Southwest 102 117 1,500 250 Climbing Orlando TRACON
Wed 09:49:18 AM 28.5000 -81.4167 221° Southwest 116 133 1,600 50 Climbing Orlando TRACON
Wed 09:50:18 AM 28.4833 -81.4500 240° Southwest 119 137 1,600 250 Level Orlando TRACON
Wed 09:51:18 AM 28.4833 -81.4833 270° West 93 107 2,100 550 Climbing Orlando TRACON
Wed 09:52:18 AM 28.4667 -81.5000 221° Southwest 86 99 2,700 500 Climbing Orlando TRACON
Wed 09:53:18 AM 28.4667 -81.5333 270° West 81 93 3,100 400 Climbing Orlando TRACON
Wed 09:54:18 AM 28.4833 -81.5500 319° Northwest 82 94 3,500 397 Climbing Orlando TRACON
Wed 09:55:19 AM 28.5000 -81.5667 319° Northwest 83 96 3,900 298 Climbing Orlando TRACON
Wed 09:56:19 AM 28.5333 -81.5833 336° Northwest 91 105 4,100 50 Climbing Orlando TRACON
Wed 09:57:19 AM 28.5500 -81.6000 319° Northwest 97 112 4,000 -70 Descending Orlando TRACON
Wed 09:59:10 AM 28.5819 -81.6372 314° West 91 105 3,900 -34 Descending Jacksonville Center
Wed 10:00:17 AM 28.6031 -81.6631 313° West 97 112 3,900  Level Jacksonville Center
Wed 10:01:18 AM 28.6222 -81.6817 320° Northwest 94 108 3,900  Level Jacksonville Center
Wed 10:02:19 AM 28.6431 -81.7028 318° Northwest 97 112 3,900  Level Jacksonville Center
Wed 10:03:20 AM 28.6642 -81.7214 322° Northwest 95 109 3,900 49 Level Jacksonville Center
Wed 10:04:21 AM 28.6853 -81.7425 319° Northwest 93 107 4,000 49 Climbing Jacksonville Center
Wed 10:05:22 AM 28.7064 -81.7611 322° Northwest 100 115 4,000  Level Jacksonville Center
Wed 10:06:23 AM 28.7275 -81.7822 319° Northwest 103 119 4,000  Level Jacksonville Center
Wed 10:07:24 AM 28.7483 -81.8056 316° Northwest 102 117 4,000  Level Jacksonville Center
Wed 10:08:25 AM 28.7694 -81.8292 316° Northwest 100 115 4,000  Level Jacksonville Center
Wed 10:09:26 AM 28.7906 -81.8503 319° Northwest 98 113 4,000  Level Jacksonville Center
Wed 10:10:28 AM 28.8094 -81.8689 319° Northwest 95 109 4,000  Level Jacksonville Center
Wed 10:11:28 AM 28.8325 -81.8878 324° Northwest 98 113 4,000  Level Jacksonville Center
Wed 10:12:36 AM 28.8597 -81.9039 333° Northwest 100 115 4,000  Level Jacksonville Center
Wed 10:13:37 AM 28.8808 -81.9181 330° Northwest 95 109 4,000  Level Jacksonville Center
Wed 10:14:31 AM 28.9039 -81.9344 328° Northwest 101 116 4,000  Level Jacksonville Center
Wed 10:15:32 AM 28.9292 -81.9531 327° Northwest 103 119 4,000  Level Jacksonville Center
Wed 10:16:34 AM 28.9542 -81.9694 330° Northwest 101 116 4,000 52 Level Jacksonville Center
Wed 10:17:28 AM 28.9753 -81.9811 334° Northwest 98 113 4,100  Climbing Jacksonville Center
Wed 10:18:29 AM 29.0003 -82.0000 327° Northwest 96 110 4,000 -49 Descending Jacksonville Center
Wed 10:19:30 AM 29.0194 -82.0211 316° Northwest 105 121 4,000 -49 Level Jacksonville Center
Wed 10:20:31 AM 29.0050 -82.0522 242° Southwest 126 145 3,900 -234 Descending Jacksonville Center
Wed 10:21:38 AM 28.9822 -82.0808 228° Southwest 116 133 3,500 -469 Descending Jacksonville Center
Wed 10:22:39 AM 28.9636 -82.1142 237° Southwest 116 133 2,900 -443 Descending Jacksonville Center
Wed 10:23:40 AM 28.9514 -82.1497 249° West 110 127 2,600 -443 Descending Jacksonville Center
Wed 10:24:41 AM 28.9472 -82.1831 262° West 110 127 2,000 -281 Descending Jacksonville Center
Wed 10:25:48 AM 28.9642 -82.2092 307° West 98 113 2,000  Level Jacksonville Center
Wed 10:26:49 AM 28.9850 -82.2256 325° Northwest 93 107 2,000  Level Jacksonville Center
Wed 10:27:50 AM 29.0122 -82.2278 356° North 100 115 2,000  Level Jacksonville Center
Wed 10:28:51 AM 29.0394 -82.2253 North 100 115 2,000  Level Jacksonville Center
Wed 10:29:46 AM 29.0644 -82.2228 North 92 106 2,000 -259 Level Jacksonville Center
Wed 10:30:47 AM 29.0853 -82.2250 355° North 83 96 1,500 -466 Descending Jacksonville Center
Wed 10:31:42 AM 29.1083 -82.2247 North 79 91 1,100 -466 Descending Jacksonville Center
Wed 10:32:43 AM 29.1333 -82.2269 356° North 88 101 600 -344 Descending Jacksonville Center
Wed 10:33:44 AM 29.1561 -82.2244 North 84 97 400 -140 Descending Jacksonville Center
Wed 10:34:09 AM 29.1667 -82.2244 360° North 97 112 400 492 Level Jacksonville Center
Wed 10:34:45 AM 29.1814 -82.2267 352° North 88 101 900 716 Climbing Jacksonville Center
Wed 10:35:58 AM 29.2106 -82.2264 360° North 80 92 1,700 609 Climbing Jacksonville Center
Wed 10:36:53 AM 29.2292 -82.2264 360° North 75 86 2,200 541 Climbing Jacksonville Center
Wed 10:38:00 AM 29.2544 -82.2286 356° North 86 99 2,800 443 Climbing Jacksonville Center
Wed 10:38:55 AM 29.2772 -82.2331 350° North 100 115 3,100 103 Climbing Jacksonville Center
Wed 10:39:56 AM 29.3044 -82.2378 351° North 97 112 3,000 -49 Descending Jacksonville Center
Wed 10:40:57 AM 29.3275 -82.2447 345° North 87 100 3,000  Level Jacksonville Center
Wed 10:42:05 AM 29.3503 -82.2375 15° North 96 110 3,000  Level Jacksonville Center
Wed 10:42:59 AM 29.3253 -82.2281 162° South 114 131 3,000 104 Level Jacksonville Center
Wed 10:44:00 AM 29.3108 -82.2519 235° Southwest 105 121 3,200  Climbing Jacksonville Center
Wed 10:45:01 AM 29.3358 -82.2589 346° North 93 107 3,000 -103 Descending Jacksonville Center
Wed 10:45:56 AM 29.3294 -82.2422 114° Southeast 116 133 3,000 49 Level Jacksonville Center
Wed 10:47:04 AM 29.2942 -82.2378 174° South 114 131 3,100 47 Climbing Jacksonville Center
Wed 10:48:04 AM 29.2606 -82.2356 177° South 113 130 3,100  Level Jacksonville Center
Wed 10:49:05 AM 29.2294 -82.2358 180° South 112 129 3,100  Level Jacksonville Center
Wed 10:50:00 AM 29.2022 -82.2311 171° South 115 132 3,100  Level Jacksonville Center
Wed 10:51:07 AM 29.1667 -82.2267 174° South 111 128 3,100  Level Jacksonville Center
Wed 10:52:08 AM 29.1353 -82.2244 176° South 108 124 3,100 -49 Level Jacksonville Center
Wed 10:53:09 AM 29.1061 -82.2200 172° South 110 127 3,000  Descending Jacksonville Center
Wed 10:54:10 AM 29.0747 -82.2203 180° South 108 124 3,100 49 Climbing Jacksonville Center
Wed 10:55:11 AM 29.0433 -82.2133 169° South 111 128 3,100  Level Jacksonville Center

Login

Don't have an account? Register now (free) for customized features, flight alerts, and more!